sensor_id;sensor_type;location;lat;lon;timestamp;P1;durP1;ratioP1;P2;durP2;ratioP2
25982;SDS011;13773;48.868;10.730;2022-11-11T00:00:35;14.07;;;10.33;;
25982;SDS011;13773;48.868;10.730;2022-11-11T00:03:01;12.73;;;9.73;;
25982;SDS011;13773;48.868;10.730;2022-11-11T00:05:28;20.07;;;10.40;;
25982;SDS011;13773;48.868;10.730;2022-11-11T00:07:54;16.43;;;10.47;;
25982;SDS011;13773;48.868;10.730;2022-11-11T00:10:26;18.80;;;11.50;;
25982;SDS011;13773;48.868;10.730;2022-11-11T00:12:56;15.93;;;10.10;;
25982;SDS011;13773;48.868;10.730;2022-11-11T00:15:24;14.47;;;11.10;;
25982;SDS011;13773;48.868;10.730;2022-11-11T00:17:49;16.07;;;11.30;;
25982;SDS011;13773;48.868;10.730;2022-11-11T00:20:35;24.00;;;14.57;;
25982;SDS011;13773;48.868;10.730;2022-11-11T00:23:23;18.90;;;11.80;;
25982;SDS011;13773;48.868;10.730;2022-11-11T00:26:09;22.30;;;14.00;;
25982;SDS011;13773;48.868;10.730;2022-11-11T00:28:36;19.77;;;12.93;;
25982;SDS011;13773;48.868;10.730;2022-11-11T00:31:06;24.13;;;14.77;;
25982;SDS011;13773;48.868;10.730;2022-11-11T00:33:33;17.93;;;11.27;;
25982;SDS011;13773;48.868;10.730;2022-11-11T00:35:59;17.90;;;11.43;;
25982;SDS011;13773;48.868;10.730;2022-11-11T00:38:25;16.10;;;10.93;;
25982;SDS011;13773;48.868;10.730;2022-11-11T00:41:10;14.27;;;10.83;;
25982;SDS011;13773;48.868;10.730;2022-11-11T00:43:45;15.33;;;10.60;;
25982;SDS011;13773;48.868;10.730;2022-11-11T00:46:12;17.63;;;11.00;;
25982;SDS011;13773;48.868;10.730;2022-11-11T00:48:57;14.77;;;10.97;;
25982;SDS011;13773;48.868;10.730;2022-11-11T00:51:41;17.97;;;12.20;;
25982;SDS011;13773;48.868;10.730;2022-11-11T00:54:08;26.87;;;14.33;;
25982;SDS011;13773;48.868;10.730;2022-11-11T00:56:33;21.50;;;13.00;;
25982;SDS011;13773;48.868;10.730;2022-11-11T00:59:06;14.43;;;10.77;;
25982;SDS011;13773;48.868;10.730;2022-11-11T01:01:34;15.63;;;10.93;;
25982;SDS011;13773;48.868;10.730;2022-11-11T01:04:00;12.90;;;10.40;;
25982;SDS011;13773;48.868;10.730;2022-11-11T01:06:26;16.53;;;11.43;;
25982;SDS011;13773;48.868;10.730;2022-11-11T01:08:52;17.57;;;11.90;;
25982;SDS011;13773;48.868;10.730;2022-11-11T01:11:20;20.77;;;12.07;;
25982;SDS011;13773;48.868;10.730;2022-11-11T01:13:47;18.80;;;13.63;;
25982;SDS011;13773;48.868;10.730;2022-11-11T01:16:15;21.50;;;14.37;;
25982;SDS011;13773;48.868;10.730;2022-11-11T01:18:46;23.03;;;14.30;;
25982;SDS011;13773;48.868;10.730;2022-11-11T01:21:14;20.80;;;14.53;;
25982;SDS011;13773;48.868;10.730;2022-11-11T01:23:42;19.80;;;13.50;;
25982;SDS011;13773;48.868;10.730;2022-11-11T01:26:20;20.00;;;13.47;;
25982;SDS011;13773;48.868;10.730;2022-11-11T01:28:47;17.37;;;12.33;;
25982;SDS011;13773;48.868;10.730;2022-11-11T01:31:15;18.70;;;13.30;;
25982;SDS011;13773;48.868;10.730;2022-11-11T01:33:42;19.47;;;13.97;;
25982;SDS011;13773;48.868;10.730;2022-11-11T01:36:11;24.90;;;14.20;;
25982;SDS011;13773;48.868;10.730;2022-11-11T01:38:39;23.60;;;15.37;;
25982;SDS011;13773;48.868;10.730;2022-11-11T01:41:12;20.53;;;14.17;;
25982;SDS011;13773;48.868;10.730;2022-11-11T01:44:40;20.07;;;14.17;;
25982;SDS011;13773;48.868;10.730;2022-11-11T01:47:04;22.87;;;15.93;;
25982;SDS011;13773;48.868;10.730;2022-11-11T01:49:48;24.23;;;16.77;;
25982;SDS011;13773;48.868;10.730;2022-11-11T01:52:25;27.17;;;16.97;;
25982;SDS011;13773;48.868;10.730;2022-11-11T01:57:27;25.80;;;15.83;;
25982;SDS011;13773;48.868;10.730;2022-11-11T02:00:04;36.53;;;20.07;;
25982;SDS011;13773;48.868;10.730;2022-11-11T02:02:38;25.83;;;17.47;;
25982;SDS011;13773;48.868;10.730;2022-11-11T02:05:09;25.97;;;16.73;;
25982;SDS011;13773;48.868;10.730;2022-11-11T02:07:56;23.27;;;15.23;;
25982;SDS011;13773;48.868;10.730;2022-11-11T02:10:24;31.33;;;19.80;;
25982;SDS011;13773;48.868;10.730;2022-11-11T02:12:51;32.10;;;19.77;;
25982;SDS011;13773;48.868;10.730;2022-11-11T02:15:35;35.57;;;20.43;;
25982;SDS011;13773;48.868;10.730;2022-11-11T02:18:02;34.10;;;20.40;;
25982;SDS011;13773;48.868;10.730;2022-11-11T02:20:29;39.27;;;22.90;;
25982;SDS011;13773;48.868;10.730;2022-11-11T02:23:04;33.43;;;20.60;;
25982;SDS011;13773;48.868;10.730;2022-11-11T02:25:31;25.23;;;16.27;;
25982;SDS011;13773;48.868;10.730;2022-11-11T02:27:58;21.23;;;14.27;;
25982;SDS011;13773;48.868;10.730;2022-11-11T02:30:27;28.60;;;18.47;;
25982;SDS011;13773;48.868;10.730;2022-11-11T02:32:53;28.00;;;17.10;;
25982;SDS011;13773;48.868;10.730;2022-11-11T02:35:20;29.07;;;16.93;;
25982;SDS011;13773;48.868;10.730;2022-11-11T02:37:50;20.30;;;14.40;;
25982;SDS011;13773;48.868;10.730;2022-11-11T02:40:36;30.87;;;19.40;;
25982;SDS011;13773;48.868;10.730;2022-11-11T02:43:23;28.03;;;15.83;;
25982;SDS011;13773;48.868;10.730;2022-11-11T02:45:49;25.07;;;16.77;;
25982;SDS011;13773;48.868;10.730;2022-11-11T02:48:15;29.30;;;18.47;;
25982;SDS011;13773;48.868;10.730;2022-11-11T02:50:41;28.00;;;17.80;;
25982;SDS011;13773;48.868;10.730;2022-11-11T02:53:06;26.87;;;18.33;;
25982;SDS011;13773;48.868;10.730;2022-11-11T02:55:32;25.30;;;15.87;;
25982;SDS011;13773;48.868;10.730;2022-11-11T02:57:58;23.37;;;15.67;;
25982;SDS011;13773;48.868;10.730;2022-11-11T03:00:24;29.83;;;17.27;;
25982;SDS011;13773;48.868;10.730;2022-11-11T03:02:50;26.53;;;16.23;;
25982;SDS011;13773;48.868;10.730;2022-11-11T03:05:16;25.50;;;15.73;;
25982;SDS011;13773;48.868;10.730;2022-11-11T03:07:42;26.80;;;15.57;;
25982;SDS011;13773;48.868;10.730;2022-11-11T03:10:07;26.33;;;16.30;;
25982;SDS011;13773;48.868;10.730;2022-11-11T03:12:33;29.73;;;17.93;;
25982;SDS011;13773;48.868;10.730;2022-11-11T03:14:59;33.40;;;18.97;;
25982;SDS011;13773;48.868;10.730;2022-11-11T03:17:25;35.47;;;19.80;;
25982;SDS011;13773;48.868;10.730;2022-11-11T03:20:12;33.90;;;18.30;;
25982;SDS011;13773;48.868;10.730;2022-11-11T03:23:06;29.13;;;16.70;;
25982;SDS011;13773;48.868;10.730;2022-11-11T03:25:33;23.90;;;15.60;;
25982;SDS011;13773;48.868;10.730;2022-11-11T03:28:06;23.93;;;15.63;;
25982;SDS011;13773;48.868;10.730;2022-11-11T03:30:33;26.23;;;16.10;;
25982;SDS011;13773;48.868;10.730;2022-11-11T03:33:00;26.80;;;15.23;;
25982;SDS011;13773;48.868;10.730;2022-11-11T03:35:26;28.70;;;15.93;;
25982;SDS011;13773;48.868;10.730;2022-11-11T03:37:52;28.43;;;16.97;;
25982;SDS011;13773;48.868;10.730;2022-11-11T03:40:36;26.97;;;17.10;;
25982;SDS011;13773;48.868;10.730;2022-11-11T03:43:02;25.27;;;16.30;;
25982;SDS011;13773;48.868;10.730;2022-11-11T03:45:29;30.57;;;17.17;;
25982;SDS011;13773;48.868;10.730;2022-11-11T03:47:55;26.63;;;16.73;;
25982;SDS011;13773;48.868;10.730;2022-11-11T03:50:21;27.23;;;17.23;;
25982;SDS011;13773;48.868;10.730;2022-11-11T03:52:47;26.73;;;16.43;;
25982;SDS011;13773;48.868;10.730;2022-11-11T03:55:13;28.67;;;18.47;;
25982;SDS011;13773;48.868;10.730;2022-11-11T03:57:42;27.17;;;17.67;;
25982;SDS011;13773;48.868;10.730;2022-11-11T04:00:28;38.77;;;20.73;;
25982;SDS011;13773;48.868;10.730;2022-11-11T04:03:04;31.63;;;19.43;;
25982;SDS011;13773;48.868;10.730;2022-11-11T04:05:48;41.23;;;19.03;;
25982;SDS011;13773;48.868;10.730;2022-11-11T04:08:32;41.93;;;21.80;;
25982;SDS011;13773;48.868;10.730;2022-11-11T04:11:22;37.97;;;20.80;;
25982;SDS011;13773;48.868;10.730;2022-11-11T04:13:53;34.83;;;20.33;;
25982;SDS011;13773;48.868;10.730;2022-11-11T04:16:42;31.33;;;18.77;;
25982;SDS011;13773;48.868;10.730;2022-11-11T04:19:08;32.47;;;18.80;;
25982;SDS011;13773;48.868;10.730;2022-11-11T04:21:52;34.13;;;18.10;;
25982;SDS011;13773;48.868;10.730;2022-11-11T04:24:18;27.90;;;17.70;;
25982;SDS011;13773;48.868;10.730;2022-11-11T04:27:08;39.70;;;20.20;;
25982;SDS011;13773;48.868;10.730;2022-11-11T04:29:35;33.03;;;18.27;;
25982;SDS011;13773;48.868;10.730;2022-11-11T04:32:05;42.07;;;20.93;;
25982;SDS011;13773;48.868;10.730;2022-11-11T04:34:52;32.07;;;18.77;;
25982;SDS011;13773;48.868;10.730;2022-11-11T04:37:18;33.33;;;18.53;;
25982;SDS011;13773;48.868;10.730;2022-11-11T04:39:45;44.90;;;21.90;;
25982;SDS011;13773;48.868;10.730;2022-11-11T04:42:30;35.07;;;18.27;;
25982;SDS011;13773;48.868;10.730;2022-11-11T04:44:57;56.60;;;26.03;;
25982;SDS011;13773;48.868;10.730;2022-11-11T04:50:29;65.73;;;28.87;;
25982;SDS011;13773;48.868;10.730;2022-11-11T04:52:55;58.13;;;28.00;;
25982;SDS011;13773;48.868;10.730;2022-11-11T04:55:21;52.70;;;28.37;;
25982;SDS011;13773;48.868;10.730;2022-11-11T04:58:07;61.63;;;28.50;;
25982;SDS011;13773;48.868;10.730;2022-11-11T05:00:33;49.43;;;27.00;;
25982;SDS011;13773;48.868;10.730;2022-11-11T05:02:59;73.70;;;32.30;;
25982;SDS011;13773;48.868;10.730;2022-11-11T05:06:00;57.57;;;26.43;;
25982;SDS011;13773;48.868;10.730;2022-11-11T05:08:55;87.53;;;36.03;;
25982;SDS011;13773;48.868;10.730;2022-11-11T05:11:27;88.17;;;39.77;;
25982;SDS011;13773;48.868;10.730;2022-11-11T05:13:53;64.23;;;31.80;;
25982;SDS011;13773;48.868;10.730;2022-11-11T05:16:46;67.93;;;34.20;;
25982;SDS011;13773;48.868;10.730;2022-11-11T05:19:31;60.43;;;26.63;;
25982;SDS011;13773;48.868;10.730;2022-11-11T05:22:17;64.00;;;31.53;;
25982;SDS011;13773;48.868;10.730;2022-11-11T05:24:54;70.50;;;33.40;;
25982;SDS011;13773;48.868;10.730;2022-11-11T05:27:39;66.00;;;31.77;;
25982;SDS011;13773;48.868;10.730;2022-11-11T05:30:06;67.70;;;31.53;;
25982;SDS011;13773;48.868;10.730;2022-11-11T05:32:33;54.93;;;26.63;;
25982;SDS011;13773;48.868;10.730;2022-11-11T05:34:59;55.77;;;28.13;;
25982;SDS011;13773;48.868;10.730;2022-11-11T05:37:25;52.27;;;26.43;;
25982;SDS011;13773;48.868;10.730;2022-11-11T05:39:51;53.33;;;25.60;;
25982;SDS011;13773;48.868;10.730;2022-11-11T05:42:17;60.37;;;29.80;;
25982;SDS011;13773;48.868;10.730;2022-11-11T05:44:42;48.63;;;24.20;;
25982;SDS011;13773;48.868;10.730;2022-11-11T05:47:08;45.03;;;22.73;;
25982;SDS011;13773;48.868;10.730;2022-11-11T05:49:34;44.50;;;24.23;;
25982;SDS011;13773;48.868;10.730;2022-11-11T05:52:00;45.03;;;23.20;;
25982;SDS011;13773;48.868;10.730;2022-11-11T05:54:26;50.67;;;26.43;;
25982;SDS011;13773;48.868;10.730;2022-11-11T05:56:51;49.97;;;24.73;;
25982;SDS011;13773;48.868;10.730;2022-11-11T05:59:17;49.67;;;25.33;;
25982;SDS011;13773;48.868;10.730;2022-11-11T06:01:43;41.73;;;23.27;;
25982;SDS011;13773;48.868;10.730;2022-11-11T06:04:09;43.03;;;24.53;;
25982;SDS011;13773;48.868;10.730;2022-11-11T06:06:35;47.90;;;24.47;;
25982;SDS011;13773;48.868;10.730;2022-11-11T06:09:02;49.20;;;25.90;;
25982;SDS011;13773;48.868;10.730;2022-11-11T06:11:28;42.30;;;20.83;;
25982;SDS011;13773;48.868;10.730;2022-11-11T06:13:54;40.30;;;20.70;;
25982;SDS011;13773;48.868;10.730;2022-11-11T06:16:20;35.83;;;18.63;;
25982;SDS011;13773;48.868;10.730;2022-11-11T06:18:47;37.63;;;18.87;;
25982;SDS011;13773;48.868;10.730;2022-11-11T06:21:13;42.20;;;22.10;;
25982;SDS011;13773;48.868;10.730;2022-11-11T06:23:39;42.97;;;21.10;;
25982;SDS011;13773;48.868;10.730;2022-11-11T06:26:05;40.97;;;20.17;;
25982;SDS011;13773;48.868;10.730;2022-11-11T06:28:44;33.73;;;17.63;;
25982;SDS011;13773;48.868;10.730;2022-11-11T06:31:15;33.20;;;18.17;;
25982;SDS011;13773;48.868;10.730;2022-11-11T06:33:42;31.33;;;17.63;;
25982;SDS011;13773;48.868;10.730;2022-11-11T06:36:09;29.70;;;16.53;;
25982;SDS011;13773;48.868;10.730;2022-11-11T06:38:37;40.47;;;19.43;;
25982;SDS011;13773;48.868;10.730;2022-11-11T06:41:03;34.33;;;18.03;;
25982;SDS011;13773;48.868;10.730;2022-11-11T06:43:29;36.17;;;18.23;;
25982;SDS011;13773;48.868;10.730;2022-11-11T06:45:55;27.40;;;16.23;;
25982;SDS011;13773;48.868;10.730;2022-11-11T06:48:21;33.23;;;17.93;;
25982;SDS011;13773;48.868;10.730;2022-11-11T06:50:48;32.10;;;17.20;;
25982;SDS011;13773;48.868;10.730;2022-11-11T06:53:16;27.77;;;15.97;;
25982;SDS011;13773;48.868;10.730;2022-11-11T06:55:43;30.20;;;16.90;;
25982;SDS011;13773;48.868;10.730;2022-11-11T06:58:10;31.37;;;16.43;;
25982;SDS011;13773;48.868;10.730;2022-11-11T07:00:38;32.23;;;18.20;;
25982;SDS011;13773;48.868;10.730;2022-11-11T07:03:04;27.63;;;16.83;;
25982;SDS011;13773;48.868;10.730;2022-11-11T07:05:31;33.63;;;16.13;;
25982;SDS011;13773;48.868;10.730;2022-11-11T07:08:01;30.50;;;16.27;;
25982;SDS011;13773;48.868;10.730;2022-11-11T07:10:28;33.57;;;16.17;;
25982;SDS011;13773;48.868;10.730;2022-11-11T07:12:54;32.30;;;17.20;;
25982;SDS011;13773;48.868;10.730;2022-11-11T07:15:20;35.33;;;18.73;;
25982;SDS011;13773;48.868;10.730;2022-11-11T07:17:46;33.03;;;18.23;;
25982;SDS011;13773;48.868;10.730;2022-11-11T07:20:11;31.07;;;17.63;;
25982;SDS011;13773;48.868;10.730;2022-11-11T07:22:37;31.07;;;17.40;;
25982;SDS011;13773;48.868;10.730;2022-11-11T07:25:03;33.60;;;18.23;;
25982;SDS011;13773;48.868;10.730;2022-11-11T07:27:29;29.80;;;17.77;;
25982;SDS011;13773;48.868;10.730;2022-11-11T07:29:54;33.97;;;19.20;;
25982;SDS011;13773;48.868;10.730;2022-11-11T07:32:20;37.10;;;18.87;;
25982;SDS011;13773;48.868;10.730;2022-11-11T07:34:46;33.13;;;18.83;;
25982;SDS011;13773;48.868;10.730;2022-11-11T07:37:12;36.37;;;19.73;;
25982;SDS011;13773;48.868;10.730;2022-11-11T07:39:37;37.40;;;20.43;;
25982;SDS011;13773;48.868;10.730;2022-11-11T07:42:03;35.00;;;19.67;;
25982;SDS011;13773;48.868;10.730;2022-11-11T07:44:29;37.10;;;19.40;;
25982;SDS011;13773;48.868;10.730;2022-11-11T07:46:54;34.73;;;20.07;;
25982;SDS011;13773;48.868;10.730;2022-11-11T07:49:20;39.77;;;22.00;;
25982;SDS011;13773;48.868;10.730;2022-11-11T07:51:45;41.73;;;21.70;;
25982;SDS011;13773;48.868;10.730;2022-11-11T07:54:11;39.27;;;20.77;;
25982;SDS011;13773;48.868;10.730;2022-11-11T07:56:37;41.10;;;21.90;;
25982;SDS011;13773;48.868;10.730;2022-11-11T07:59:03;40.17;;;23.37;;
25982;SDS011;13773;48.868;10.730;2022-11-11T08:01:28;38.70;;;22.60;;
25982;SDS011;13773;48.868;10.730;2022-11-11T08:03:54;37.10;;;20.60;;
25982;SDS011;13773;48.868;10.730;2022-11-11T08:06:20;35.73;;;19.63;;
25982;SDS011;13773;48.868;10.730;2022-11-11T08:08:47;35.73;;;20.30;;
25982;SDS011;13773;48.868;10.730;2022-11-11T08:11:13;30.97;;;20.27;;
25982;SDS011;13773;48.868;10.730;2022-11-11T08:13:40;32.93;;;20.40;;
25982;SDS011;13773;48.868;10.730;2022-11-11T08:16:07;33.57;;;20.20;;
25982;SDS011;13773;48.868;10.730;2022-11-11T08:18:34;33.60;;;20.03;;
25982;SDS011;13773;48.868;10.730;2022-11-11T08:21:00;37.70;;;21.77;;
25982;SDS011;13773;48.868;10.730;2022-11-11T08:23:27;36.83;;;21.13;;
25982;SDS011;13773;48.868;10.730;2022-11-11T08:26:02;33.97;;;20.93;;
25982;SDS011;13773;48.868;10.730;2022-11-11T08:28:30;33.73;;;21.23;;
25982;SDS011;13773;48.868;10.730;2022-11-11T08:30:57;40.43;;;23.37;;
25982;SDS011;13773;48.868;10.730;2022-11-11T08:33:24;49.00;;;26.93;;
25982;SDS011;13773;48.868;10.730;2022-11-11T08:35:51;52.30;;;26.33;;
25982;SDS011;13773;48.868;10.730;2022-11-11T08:38:18;46.07;;;25.97;;
25982;SDS011;13773;48.868;10.730;2022-11-11T08:40:44;53.67;;;27.73;;
25982;SDS011;13773;48.868;10.730;2022-11-11T08:43:10;47.60;;;26.70;;
25982;SDS011;13773;48.868;10.730;2022-11-11T08:45:36;53.20;;;28.50;;
25982;SDS011;13773;48.868;10.730;2022-11-11T08:48:02;51.60;;;27.00;;
25982;SDS011;13773;48.868;10.730;2022-11-11T08:50:28;44.97;;;25.83;;
25982;SDS011;13773;48.868;10.730;2022-11-11T08:52:54;46.90;;;26.73;;
25982;SDS011;13773;48.868;10.730;2022-11-11T08:55:20;47.13;;;27.13;;
25982;SDS011;13773;48.868;10.730;2022-11-11T08:57:46;45.53;;;25.63;;
25982;SDS011;13773;48.868;10.730;2022-11-11T09:00:12;42.50;;;26.13;;
25982;SDS011;13773;48.868;10.730;2022-11-11T09:02:38;43.00;;;25.53;;
25982;SDS011;13773;48.868;10.730;2022-11-11T09:05:04;39.83;;;25.00;;
25982;SDS011;13773;48.868;10.730;2022-11-11T09:07:33;37.57;;;24.00;;
25982;SDS011;13773;48.868;10.730;2022-11-11T09:09:59;37.03;;;24.70;;
25982;SDS011;13773;48.868;10.730;2022-11-11T09:12:24;37.67;;;24.30;;
25982;SDS011;13773;48.868;10.730;2022-11-11T09:14:50;36.70;;;24.20;;
25982;SDS011;13773;48.868;10.730;2022-11-11T09:17:16;33.97;;;24.20;;
25982;SDS011;13773;48.868;10.730;2022-11-11T09:19:41;30.43;;;22.23;;
25982;SDS011;13773;48.868;10.730;2022-11-11T09:22:07;30.33;;;21.57;;
25982;SDS011;13773;48.868;10.730;2022-11-11T09:24:33;28.87;;;20.87;;
25982;SDS011;13773;48.868;10.730;2022-11-11T09:26:58;28.17;;;19.80;;
25982;SDS011;13773;48.868;10.730;2022-11-11T09:29:24;30.93;;;21.07;;
25982;SDS011;13773;48.868;10.730;2022-11-11T09:31:50;25.53;;;19.90;;
25982;SDS011;13773;48.868;10.730;2022-11-11T09:34:15;27.37;;;20.30;;
25982;SDS011;13773;48.868;10.730;2022-11-11T09:36:44;25.23;;;18.63;;
25982;SDS011;13773;48.868;10.730;2022-11-11T09:39:09;24.00;;;18.07;;
25982;SDS011;13773;48.868;10.730;2022-11-11T09:44:38;19.70;;;16.40;;
25982;SDS011;13773;48.868;10.730;2022-11-11T09:50:25;16.37;;;14.20;;
25982;SDS011;13773;48.868;10.730;2022-11-11T09:53:09;17.23;;;14.57;;
25982;SDS011;13773;48.868;10.730;2022-11-11T09:55:46;17.83;;;15.40;;
25982;SDS011;13773;48.868;10.730;2022-11-11T09:58:23;17.07;;;14.80;;
25982;SDS011;13773;48.868;10.730;2022-11-11T10:00:59;16.20;;;14.00;;
25982;SDS011;13773;48.868;10.730;2022-11-11T10:03:29;14.80;;;13.27;;
25982;SDS011;13773;48.868;10.730;2022-11-11T10:06:04;15.23;;;13.63;;
25982;SDS011;13773;48.868;10.730;2022-11-11T10:08:36;14.70;;;12.77;;
25982;SDS011;13773;48.868;10.730;2022-11-11T10:11:38;14.63;;;12.63;;
25982;SDS011;13773;48.868;10.730;2022-11-11T10:14:17;14.57;;;13.07;;
25982;SDS011;13773;48.868;10.730;2022-11-11T10:19:28;13.93;;;12.43;;
25982;SDS011;13773;48.868;10.730;2022-11-11T10:27:43;12.60;;;11.30;;
25982;SDS011;13773;48.868;10.730;2022-11-11T10:33:02;13.80;;;12.40;;
25982;SDS011;13773;48.868;10.730;2022-11-11T10:35:31;13.17;;;11.77;;
25982;SDS011;13773;48.868;10.730;2022-11-11T10:40:51;14.17;;;12.30;;
25982;SDS011;13773;48.868;10.730;2022-11-11T10:48:39;13.83;;;12.43;;
25982;SDS011;13773;48.868;10.730;2022-11-11T10:51:15;13.00;;;11.57;;
25982;SDS011;13773;48.868;10.730;2022-11-11T10:56:35;13.97;;;11.70;;
25982;SDS011;13773;48.868;10.730;2022-11-11T10:59:21;18.17;;;12.67;;
25982;SDS011;13773;48.868;10.730;2022-11-11T11:01:56;13.90;;;12.50;;
25982;SDS011;13773;48.868;10.730;2022-11-11T11:04:39;14.77;;;12.63;;
25982;SDS011;13773;48.868;10.730;2022-11-11T11:07:13;15.70;;;12.90;;
25982;SDS011;13773;48.868;10.730;2022-11-11T11:09:52;16.70;;;13.47;;
25982;SDS011;13773;48.868;10.730;2022-11-11T11:12:37;15.47;;;12.60;;
25982;SDS011;13773;48.868;10.730;2022-11-11T11:15:16;13.87;;;12.43;;
25982;SDS011;13773;48.868;10.730;2022-11-11T11:20:35;12.70;;;11.40;;
25982;SDS011;13773;48.868;10.730;2022-11-11T11:23:01;13.27;;;11.93;;
25982;SDS011;13773;48.868;10.730;2022-11-11T11:25:28;13.47;;;12.07;;
25982;SDS011;13773;48.868;10.730;2022-11-11T11:28:05;13.07;;;11.70;;
25982;SDS011;13773;48.868;10.730;2022-11-11T11:30:37;11.60;;;10.50;;
25982;SDS011;13773;48.868;10.730;2022-11-11T11:33:04;12.13;;;10.97;;
25982;SDS011;13773;48.868;10.730;2022-11-11T11:37:57;12.30;;;10.87;;
25982;SDS011;13773;48.868;10.730;2022-11-11T11:40:23;11.07;;;9.97;;
25982;SDS011;13773;48.868;10.730;2022-11-11T11:42:49;10.47;;;9.37;;
25982;SDS011;13773;48.868;10.730;2022-11-11T11:50:41;10.80;;;9.70;;
25982;SDS011;13773;48.868;10.730;2022-11-11T11:56:06;11.00;;;9.80;;
25982;SDS011;13773;48.868;10.730;2022-11-11T11:58:57;11.10;;;10.00;;
25982;SDS011;13773;48.868;10.730;2022-11-11T12:09:52;10.87;;;9.80;;
25982;SDS011;13773;48.868;10.730;2022-11-11T12:15:27;10.20;;;9.30;;
25982;SDS011;13773;48.868;10.730;2022-11-11T12:21:08;12.17;;;9.60;;
25982;SDS011;13773;48.868;10.730;2022-11-11T12:23:53;10.93;;;9.93;;
25982;SDS011;13773;48.868;10.730;2022-11-11T12:45:23;10.83;;;9.73;;
25982;SDS011;13773;48.868;10.730;2022-11-11T12:50:36;12.43;;;10.93;;
25982;SDS011;13773;48.868;10.730;2022-11-11T13:05:20;10.80;;;9.80;;
25982;SDS011;13773;48.868;10.730;2022-11-11T13:08:31;11.10;;;10.00;;
25982;SDS011;13773;48.868;10.730;2022-11-11T13:16:09;11.47;;;9.13;;
25982;SDS011;13773;48.868;10.730;2022-11-11T13:18:40;11.13;;;9.93;;
25982;SDS011;13773;48.868;10.730;2022-11-11T13:21:10;10.63;;;9.53;;
25982;SDS011;13773;48.868;10.730;2022-11-11T13:23:40;11.30;;;10.10;;
25982;SDS011;13773;48.868;10.730;2022-11-11T13:26:11;11.77;;;9.40;;
25982;SDS011;13773;48.868;10.730;2022-11-11T13:28:52;10.63;;;9.53;;
25982;SDS011;13773;48.868;10.730;2022-11-11T13:31:49;11.27;;;9.53;;
25982;SDS011;13773;48.868;10.730;2022-11-11T13:34:16;11.43;;;10.17;;
25982;SDS011;13773;48.868;10.730;2022-11-11T13:36:45;10.67;;;9.30;;
25982;SDS011;13773;48.868;10.730;2022-11-11T13:42:01;10.10;;;9.03;;
25982;SDS011;13773;48.868;10.730;2022-11-11T13:47:17;10.20;;;9.07;;
25982;SDS011;13773;48.868;10.730;2022-11-11T13:49:50;9.70;;;8.80;;
25982;SDS011;13773;48.868;10.730;2022-11-11T13:52:23;11.23;;;9.97;;
25982;SDS011;13773;48.868;10.730;2022-11-11T13:54:59;10.73;;;9.67;;
25982;SDS011;13773;48.868;10.730;2022-11-11T13:57:32;11.13;;;9.93;;
25982;SDS011;13773;48.868;10.730;2022-11-11T14:02:42;11.03;;;9.73;;
25982;SDS011;13773;48.868;10.730;2022-11-11T14:10:54;10.43;;;9.37;;
25982;SDS011;13773;48.868;10.730;2022-11-11T14:15:50;11.33;;;10.23;;
25982;SDS011;13773;48.868;10.730;2022-11-11T14:25:39;11.53;;;10.43;;
25982;SDS011;13773;48.868;10.730;2022-11-11T14:28:17;13.40;;;10.67;;
25982;SDS011;13773;48.868;10.730;2022-11-11T14:30:57;12.57;;;11.33;;
25982;SDS011;13773;48.868;10.730;2022-11-11T14:44:57;14.37;;;12.67;;
25982;SDS011;13773;48.868;10.730;2022-11-11T14:47:24;13.50;;;12.03;;
25982;SDS011;13773;48.868;10.730;2022-11-11T14:52:52;17.60;;;15.70;;
25982;SDS011;13773;48.868;10.730;2022-11-11T14:55:25;14.17;;;12.07;;
25982;SDS011;13773;48.868;10.730;2022-11-11T14:57:57;13.97;;;12.43;;
25982;SDS011;13773;48.868;10.730;2022-11-11T15:00:46;13.87;;;12.47;;
25982;SDS011;13773;48.868;10.730;2022-11-11T15:03:25;14.23;;;12.53;;
25982;SDS011;13773;48.868;10.730;2022-11-11T15:08:25;15.13;;;13.27;;
25982;SDS011;13773;48.868;10.730;2022-11-11T15:16:30;18.23;;;13.90;;
25982;SDS011;13773;48.868;10.730;2022-11-11T15:19:17;19.43;;;13.50;;
25982;SDS011;13773;48.868;10.730;2022-11-11T15:35:30;18.07;;;13.07;;
25982;SDS011;13773;48.868;10.730;2022-11-11T15:38:05;19.53;;;12.50;;
25982;SDS011;13773;48.868;10.730;2022-11-11T15:40:43;16.70;;;12.63;;
25982;SDS011;13773;48.868;10.730;2022-11-11T15:43:31;16.67;;;12.90;;
25982;SDS011;13773;48.868;10.730;2022-11-11T15:46:00;16.40;;;13.30;;
25982;SDS011;13773;48.868;10.730;2022-11-11T15:48:37;17.90;;;14.07;;
25982;SDS011;13773;48.868;10.730;2022-11-11T15:53:49;18.63;;;12.83;;
25982;SDS011;13773;48.868;10.730;2022-11-11T15:56:28;16.97;;;12.80;;
25982;SDS011;13773;48.868;10.730;2022-11-11T15:58:55;21.67;;;13.50;;
25982;SDS011;13773;48.868;10.730;2022-11-11T16:01:24;38.67;;;20.47;;
25982;SDS011;13773;48.868;10.730;2022-11-11T16:03:53;30.07;;;17.63;;
25982;SDS011;13773;48.868;10.730;2022-11-11T16:06:19;40.33;;;16.40;;
25982;SDS011;13773;48.868;10.730;2022-11-11T16:08:49;37.50;;;16.40;;
25982;SDS011;13773;48.868;10.730;2022-11-11T16:11:17;20.63;;;15.20;;
25982;SDS011;13773;48.868;10.730;2022-11-11T16:13:48;30.63;;;14.70;;
25982;SDS011;13773;48.868;10.730;2022-11-11T16:16:21;33.17;;;15.83;;
25982;SDS011;13773;48.868;10.730;2022-11-11T16:18:52;24.87;;;14.63;;
25982;SDS011;13773;48.868;10.730;2022-11-11T16:21:36;25.07;;;14.83;;
25982;SDS011;13773;48.868;10.730;2022-11-11T16:24:16;27.00;;;14.47;;
25982;SDS011;13773;48.868;10.730;2022-11-11T16:27:00;16.33;;;14.63;;
25982;SDS011;13773;48.868;10.730;2022-11-11T16:29:29;16.20;;;14.43;;
25982;SDS011;13773;48.868;10.730;2022-11-11T16:32:01;21.33;;;13.73;;
25982;SDS011;13773;48.868;10.730;2022-11-11T16:34:47;16.20;;;13.07;;
25982;SDS011;13773;48.868;10.730;2022-11-11T16:37:14;16.93;;;13.67;;
25982;SDS011;13773;48.868;10.730;2022-11-11T16:39:41;14.77;;;12.97;;
25982;SDS011;13773;48.868;10.730;2022-11-11T16:50:05;19.13;;;14.33;;
25982;SDS011;13773;48.868;10.730;2022-11-11T16:55:29;18.67;;;14.00;;
25982;SDS011;13773;48.868;10.730;2022-11-11T16:57:59;23.73;;;14.23;;
25982;SDS011;13773;48.868;10.730;2022-11-11T17:00:27;26.43;;;13.13;;
25982;SDS011;13773;48.868;10.730;2022-11-11T17:03:13;22.40;;;15.30;;
25982;SDS011;13773;48.868;10.730;2022-11-11T17:08:48;27.50;;;15.13;;
25982;SDS011;13773;48.868;10.730;2022-11-11T17:11:09;55.60;;;34.10;;
25982;SDS011;13773;48.868;10.730;2022-11-11T17:13:55;35.13;;;19.37;;
25982;SDS011;13773;48.868;10.730;2022-11-11T17:16:21;27.97;;;17.90;;
25982;SDS011;13773;48.868;10.730;2022-11-11T17:18:46;26.10;;;15.83;;
25982;SDS011;13773;48.868;10.730;2022-11-11T17:21:12;26.87;;;15.47;;
25982;SDS011;13773;48.868;10.730;2022-11-11T17:23:38;20.47;;;16.43;;
25982;SDS011;13773;48.868;10.730;2022-11-11T17:26:04;20.87;;;15.20;;
25982;SDS011;13773;48.868;10.730;2022-11-11T17:28:33;21.30;;;15.37;;
25982;SDS011;13773;48.868;10.730;2022-11-11T17:31:07;19.43;;;14.30;;